Time;durP1;ratioP1;P1;durP2;ratioP2;P2;SDS_P1;SDS_P2;PMS_P1;PMS_P2;Temp;Humidity;BMP_temperature;BMP_pressure;BME280_temperature;BME280_humidity;BME280_pressure;Samples;Min_cycle;Max_cycle;Signal;HPM_P1;HPM_P2
2021/11/07 00:01:21;;;;;;;1.33;0.52;;;;;;;10.22;61.20;100447.97;5004659;28;20049;-49
2021/11/07 00:04:05;;;;;;;8.13;0.98;;;;;;;10.22;60.86;100462.63;5002994;28;20409;-46
2021/11/07 00:06:38;;;;;;;4.70;0.70;;;;;;;10.21;60.86;100464.38;4997541;28;20113;-49
2021/11/07 00:09:18;;;;;;;5.97;1.38;;;;;;;10.18;60.95;100461.78;5002718;28;20113;-49
2021/11/07 00:11:53;;;;;;;1.90;0.60;;;;;;;10.19;59.90;100455.72;5003143;28;20057;-48
2021/11/07 00:14:21;;;;;;;9.70;0.98;;;;;;;10.25;60.97;100458.38;4999730;28;20045;-46
2021/11/07 00:16:49;;;;;;;4.15;0.80;;;;;;;10.19;60.44;100457.44;4998543;28;20775;-51
2021/11/07 00:19:32;;;;;;;12.82;1.35;;;;;;;10.18;60.32;100451.41;5002891;28;20488;-54
2021/11/07 00:22:06;;;;;;;2.28;0.75;;;;;;;10.12;61.00;100444.47;5000544;28;20466;-49
2021/11/07 00:24:45;;;;;;;8.35;0.90;;;;;;;10.13;60.72;100450.50;5000492;28;20050;-48
2021/11/07 00:27:25;;;;;;;7.40;0.95;;;;;;;10.08;60.29;100449.63;5004294;28;20060;-48
2021/11/07 00:30:16;;;;;;;5.53;0.68;;;;;;;10.06;60.22;100451.34;5002737;28;20133;-51
2021/11/07 00:32:57;;;;;;;3.40;0.80;;;;;;;10.05;60.88;100452.19;5002740;28;20108;-49
2021/11/07 00:38:17;;;;;;;7.13;1.35;;;;;;;9.92;60.70;100446.94;5004730;28;20116;-47
2021/11/07 00:41:09;;;;;;;4.75;1.33;;;;;;;9.94;60.60;100458.19;5000745;28;20100;-48
2021/11/07 00:43:36;;;;;;;4.97;0.73;;;;;;;9.92;61.04;100459.88;4999189;28;20104;-49
2021/11/07 00:46:12;;;;;;;6.50;0.93;;;;;;;9.86;61.36;100459.88;5003115;28;20041;-44
2021/11/07 00:48:45;;;;;;;8.05;0.98;;;;;;;9.80;61.18;100464.97;5004719;28;20053;-50
2021/11/07 00:51:38;;;;;;;8.15;2.10;;;;;;;9.74;61.18;100451.16;5003844;28;20713;-49
2021/11/07 00:54:12;;;;;;;6.25;0.70;;;;;;;9.73;61.17;100454.56;4986819;28;20046;-47
2021/11/07 00:56:54;;;;;;;4.30;0.47;;;;;;;9.72;61.26;100449.38;5001671;28;20088;-46
2021/11/07 00:59:35;;;;;;;7.18;1.55;;;;;;;9.68;61.18;100451.09;4998929;28;20100;-48
2021/11/07 01:02:24;;;;;;;10.48;1.00;;;;;;;9.59;61.10;100451.03;5005686;28;20127;-48
2021/11/07 01:04:51;;;;;;;7.22;0.73;;;;;;;9.61;61.58;100454.50;5004614;28;20088;-49
2021/11/07 01:07:22;;;;;;;4.70;0.68;;;;;;;9.53;61.52;100475.13;5004405;28;20053;-52
2021/11/07 01:09:52;;;;;;;12.05;0.93;;;;;;;9.51;61.16;100469.06;5004452;28;20050;-52
2021/11/07 01:12:21;;;;;;;4.60;0.70;;;;;;;9.51;60.97;100451.84;4995180;28;20108;-51
2021/11/07 01:14:50;;;;;;;3.03;0.95;;;;;;;9.45;60.21;100444.03;5002513;28;20058;-48
2021/11/07 01:17:17;;;;;;;7.20;1.10;;;;;;;9.48;60.40;100449.22;5001778;28;20054;-50
2021/11/07 01:19:44;;;;;;;4.28;0.50;;;;;;;9.45;60.09;100456.94;5001102;28;20054;-49
2021/11/07 01:22:16;;;;;;;7.13;1.20;;;;;;;9.45;60.15;100454.38;5001209;28;20068;-50
2021/11/07 01:24:53;;;;;;;3.90;0.47;;;;;;;9.42;60.20;100441.41;5002376;28;20060;-53
2021/11/07 01:27:25;;;;;;;7.32;0.60;;;;;;;9.41;60.72;100447.44;4998033;28;20066;-51
2021/11/07 01:29:58;;;;;;;5.43;1.63;;;;;;;9.41;60.29;100457.78;5000716;28;20659;-50
2021/11/07 01:32:25;;;;;;;4.30;0.88;;;;;;;9.42;60.79;100454.34;5002379;28;20081;-45
2021/11/07 01:35:00;;;;;;;5.85;0.90;;;;;;;9.43;60.96;100455.22;5000937;28;20038;-49
2021/11/07 01:37:32;;;;;;;5.93;0.68;;;;;;;9.41;61.07;100457.78;5004595;28;20444;-50
2021/11/07 01:40:09;;;;;;;7.68;0.80;;;;;;;9.41;60.96;100468.13;5004220;28;20050;-52
2021/11/07 01:42:37;;;;;;;8.95;0.77;;;;;;;9.43;61.35;100471.59;5002717;28;20049;-46
2021/11/07 01:45:13;;;;;;;6.72;0.80;;;;;;;9.47;61.82;100478.53;5001145;28;20112;-51
2021/11/07 01:47:49;;;;;;;5.63;0.93;;;;;;;9.49;61.13;100468.19;4998251;28;20058;-52
2021/11/07 01:50:16;;;;;;;6.95;0.90;;;;;;;9.54;61.18;100478.56;5002652;28;20050;-48
2021/11/07 01:52:43;;;;;;;7.90;0.63;;;;;;;9.57;61.28;100476.00;4996970;28;20140;-49
2021/11/07 01:55:20;;;;;;;8.98;0.70;;;;;;;9.59;61.69;100482.91;5002348;28;20054;-48
2021/11/07 01:57:49;;;;;;;7.45;0.90;;;;;;;9.59;61.29;100482.06;5000750;28;20038;-46
2021/11/07 02:00:21;;;;;;;8.13;0.80;;;;;;;9.61;61.37;100477.75;5000768;28;20054;-48
2021/11/07 02:02:49;;;;;;;4.32;0.50;;;;;;;9.64;61.38;100485.56;4999590;28;20490;-49
2021/11/07 02:05:16;;;;;;;6.18;0.75;;;;;;;9.68;61.05;100491.59;5002074;28;20595;-48
2021/11/07 02:07:43;;;;;;;9.18;1.38;;;;;;;9.69;60.94;100489.03;4998206;28;20528;-53
2021/11/07 02:10:13;;;;;;;10.23;1.13;;;;;;;9.73;61.36;100490.78;4998003;28;20097;-47
2021/11/07 02:12:40;;;;;;;5.35;0.70;;;;;;;9.70;61.42;100483.03;5002413;28;20042;-47
2021/11/07 02:15:11;;;;;;;14.85;1.23;;;;;;;9.67;60.58;100480.41;5001729;28;20042;-46
2021/11/07 02:17:38;;;;;;;4.40;0.63;;;;;;;9.62;61.01;100472.59;5005095;28;20045;-46
2021/11/07 02:20:10;;;;;;;6.80;0.82;;;;;;;9.58;60.73;100472.56;5003064;28;20057;-50
2021/11/07 02:22:38;;;;;;;6.32;0.93;;;;;;;9.51;61.08;100479.41;5005606;28;20054;-47
2021/11/07 02:25:06;;;;;;;9.57;1.15;;;;;;;9.54;60.89;100469.09;5002922;28;20461;-44
2021/11/07 02:27:34;;;;;;;11.68;0.90;;;;;;;9.51;60.23;100469.94;5004236;28;20053;-48
2021/11/07 02:30:00;;;;;;;8.27;0.70;;;;;;;9.44;60.40;100468.16;5009255;28;20049;-44
2021/11/07 02:32:28;;;;;;;3.20;0.50;;;;;;;9.45;60.25;100463.81;5006466;28;20112;-46
2021/11/07 02:34:55;;;;;;;10.38;1.40;;;;;;;9.38;60.45;100452.56;5006276;28;20096;-48
2021/11/07 02:37:22;;;;;;;11.90;1.13;;;;;;;9.40;60.72;100461.22;5005298;28;20096;-48
2021/11/07 02:39:49;;;;;;;8.82;1.13;;;;;;;9.44;60.95;100462.97;5008006;28;20123;-44
2021/11/07 02:42:15;;;;;;;5.65;1.23;;;;;;;9.40;61.15;100456.06;5007856;28;20054;-48
2021/11/07 02:44:45;;;;;;;10.48;0.98;;;;;;;9.39;60.92;100459.47;5003935;28;20046;-52
2021/11/07 02:47:14;;;;;;;8.82;0.60;;;;;;;9.35;60.87;100457.72;5002424;28;20065;-49
2021/11/07 02:49:42;;;;;;;7.97;1.27;;;;;;;9.32;61.11;100463.72;5003177;28;20050;-48
2021/11/07 02:52:12;;;;;;;4.15;0.75;;;;;;;9.30;61.33;100469.75;5005996;28;20050;-50
2021/11/07 02:54:39;;;;;;;6.97;0.90;;;;;;;9.29;61.25;100468.00;5001825;28;20046;-48
2021/11/07 02:57:11;;;;;;;4.97;1.95;;;;;;;9.20;61.19;100463.63;5005524;28;20609;-51
2021/11/07 02:59:41;;;;;;;6.15;1.00;;;;;;;9.16;61.66;100467.03;5004021;28;20057;-60
2021/11/07 03:02:10;;;;;;;10.52;1.25;;;;;;;9.20;61.54;100469.66;5000779;28;20061;-42
2021/11/07 03:04:39;;;;;;;5.70;0.50;;;;;;;9.20;61.77;100467.09;5003229;28;20124;-46
2021/11/07 03:07:08;;;;;;;11.82;0.95;;;;;;;9.23;61.43;100464.50;5001172;28;20064;-48
2021/11/07 03:09:37;;;;;;;7.85;0.70;;;;;;;9.25;61.21;100462.81;5001499;28;20065;-50
2021/11/07 03:12:06;;;;;;;;;;;;;;;9.16;61.21;100472.19;5007863;28;20129;-44
2021/11/07 03:14:45;;;;;;;4.22;0.50;;;;;;;9.22;61.22;100477.44;5005132;28;19922;-50
2021/11/07 03:17:15;;;;;;;4.93;0.85;;;;;;;9.24;60.74;100480.88;5006523;28;20049;-49
2021/11/07 03:19:42;;;;;;;4.85;0.65;;;;;;;9.27;60.43;100486.09;5004811;28;20108;-49
2021/11/07 03:22:12;;;;;;;8.20;1.13;;;;;;;9.24;60.44;100476.59;5004408;28;20065;-52
2021/11/07 03:24:41;;;;;;;6.70;1.50;;;;;;;9.19;60.19;100474.81;5002025;28;20052;-47
2021/11/07 03:27:17;;;;;;;15.07;0.60;;;;;;;9.16;60.55;100483.41;5004978;28;20053;-48
2021/11/07 03:29:50;;;;;;;4.30;0.50;;;;;;;9.13;60.72;100483.38;5000665;28;20466;-50
2021/11/07 03:32:22;;;;;;;8.45;1.23;;;;;;;9.13;61.04;100467.88;5003749;28;20140;-49
2021/11/07 03:34:54;;;;;;;9.52;0.98;;;;;;;9.11;60.50;100469.56;5005186;28;20494;-53
2021/11/07 03:37:25;;;;;;;7.65;0.80;;;;;;;9.09;60.72;100466.09;4996343;28;20049;-53
2021/11/07 03:39:55;;;;;;;9.85;0.95;;;;;;;9.11;60.95;100470.44;5002634;28;20060;-51
2021/11/07 03:42:23;;;;;;;;;;;;;;;8.96;60.33;100476.31;4997553;28;20050;-49
2021/11/07 03:44:51;;;;;;;4.80;0.80;;;;;;;9.07;60.73;100478.13;5003736;28;19933;-48
2021/11/07 03:47:18;;;;;;;8.32;1.05;;;;;;;9.04;61.19;100472.94;5005827;28;20131;-51
2021/11/07 03:49:46;;;;;;;9.13;0.88;;;;;;;9.01;61.44;100471.19;5001293;28;20046;-48
2021/11/07 03:52:14;;;;;;;9.40;1.33;;;;;;;9.00;61.20;100472.91;5003971;28;20046;-50
2021/11/07 03:54:42;;;;;;;6.72;0.98;;;;;;;8.98;61.68;100456.50;5006690;28;20053;-47
2021/11/07 03:57:11;;;;;;;4.90;0.60;;;;;;;8.95;61.38;100458.22;5007945;28;20045;-45
2021/11/07 03:59:42;;;;;;;6.20;0.85;;;;;;;8.92;61.58;100451.28;5004145;28;20140;-51
2021/11/07 04:02:11;;;;;;;8.27;0.73;;;;;;;8.93;61.90;100453.03;5001103;28;20045;-47
2021/11/07 04:04:39;;;;;;;6.90;0.90;;;;;;;8.89;62.17;100453.84;5004335;28;20042;-49
2021/11/07 04:07:07;;;;;;;7.55;0.68;;;;;;;8.84;62.45;100463.25;4998825;28;20061;-55
2021/11/07 04:09:35;;;;;;;4.30;0.63;;;;;;;8.83;62.12;100464.09;5002782;28;20133;-49
2021/11/07 04:12:02;;;;;;;4.47;1.05;;;;;;;8.79;61.91;100462.34;5002312;28;20382;-50
2021/11/07 04:14:33;;;;;;;7.80;0.68;;;;;;;8.73;62.64;100457.97;5001971;28;20056;-47
2021/11/07 04:17:03;;;;;;;12.98;0.90;;;;;;;8.77;61.85;100458.84;5006992;28;20056;-54
2021/11/07 04:19:31;;;;;;;6.22;1.52;;;;;;;8.72;62.47;100458.81;5004341;28;20073;-44
2021/11/07 04:22:03;;;;;;;6.57;0.95;;;;;;;8.73;62.27;100456.25;4999233;28;20098;-49
2021/11/07 04:24:31;;;;;;;7.50;1.25;;;;;;;8.72;62.45;100458.81;5001933;28;20062;-52
2021/11/07 04:27:00;;;;;;;8.45;1.00;;;;;;;8.69;62.86;100456.19;4996941;28;20133;-50
2021/11/07 04:29:27;;;;;;;5.47;0.88;;;;;;;8.64;62.54;100458.72;4997298;28;20670;-48
2021/11/07 04:31:55;;;;;;;9.88;0.82;;;;;;;8.61;63.03;100458.69;4999649;28;20049;-47
2021/11/07 04:34:23;;;;;;;9.48;1.10;;;;;;;8.63;62.29;100462.16;5003388;28;20054;-49
2021/11/07 04:36:51;;;;;;;7.40;1.10;;;;;;;8.59;62.81;100466.44;5001679;28;20064;-46
2021/11/07 04:39:19;;;;;;;7.82;0.93;;;;;;;8.58;62.38;100459.50;5007825;28;20525;-48
2021/11/07 04:41:48;;;;;;;8.25;0.93;;;;;;;8.58;62.47;100458.66;4999938;28;20101;-50
2021/11/07 04:44:15;;;;;;;4.97;0.77;;;;;;;8.54;62.67;100462.91;5004825;28;20053;-48
2021/11/07 04:46:42;;;;;;;6.50;1.00;;;;;;;8.53;62.86;100465.44;5005384;28;20045;-47
2021/11/07 04:49:09;;;;;;;8.82;1.25;;;;;;;8.51;63.51;100465.41;5002792;28;20065;-47
2021/11/07 04:51:37;;;;;;;4.82;0.60;;;;;;;8.46;63.63;100473.13;5000437;28;20072;-50
2021/11/07 04:54:04;;;;;;;4.60;0.60;;;;;;;8.45;62.67;100480.84;5005140;28;20054;-47
2021/11/07 04:56:32;;;;;;;9.40;2.25;;;;;;;8.43;62.96;100475.66;5002988;28;20748;-45
2021/11/07 04:59:00;;;;;;;12.18;0.82;;;;;;;8.42;63.68;100468.75;5001744;28;20104;-50
2021/11/07 05:01:28;;;;;;;6.35;0.75;;;;;;;8.40;63.76;100485.94;4996439;28;20042;-47
2021/11/07 05:03:55;;;;;;;8.48;1.00;;;;;;;8.33;63.85;100490.16;4998625;28;20054;-54
2021/11/07 05:06:23;;;;;;;9.30;1.63;;;;;;;8.36;64.21;100499.66;5002896;28;20038;-52
2021/11/07 05:08:50;;;;;;;9.63;1.73;;;;;;;8.34;63.69;100491.88;5004407;28;20371;-52
2021/11/07 05:11:17;;;;;;;4.93;1.10;;;;;;;8.33;64.22;100489.28;5004629;28;20076;-46
2021/11/07 05:13:44;;;;;;;5.82;0.52;;;;;;;8.34;64.12;100480.69;4999715;28;20050;-50
2021/11/07 05:16:11;;;;;;;10.88;1.80;;;;;;;8.34;63.35;100480.69;5003710;28;20052;-51
2021/11/07 05:18:39;;;;;;;5.47;0.80;;;;;;;8.32;64.34;100477.22;4999367;28;20062;-49
2021/11/07 05:21:06;;;;;;;10.68;0.93;;;;;;;8.33;63.68;100474.66;5003293;28;20050;-49
2021/11/07 05:23:33;;;;;;;4.93;1.20;;;;;;;8.31;64.22;100470.34;5001779;28;20057;-49
2021/11/07 05:26:00;;;;;;;8.75;1.30;;;;;;;8.30;63.04;100484.06;5000656;28;20038;-52
2021/11/07 05:28:28;;;;;;;6.00;0.57;;;;;;;8.30;64.08;100499.56;5000473;28;20054;-52
2021/11/07 05:30:55;;;;;;;8.68;0.93;;;;;;;8.30;63.92;100484.06;5000029;28;20065;-44
2021/11/07 05:33:23;;;;;;;9.70;0.98;;;;;;;8.29;63.78;100472.00;4995965;28;20046;-47
2021/11/07 05:35:50;;;;;;;6.57;0.50;;;;;;;8.25;63.41;100472.81;5004266;28;20438;-47
2021/11/07 05:38:17;;;;;;;5.60;1.30;;;;;;;8.31;63.87;100460.00;5002226;28;20052;-46
2021/11/07 05:40:45;;;;;;;10.50;1.35;;;;;;;8.31;63.01;100460.88;4997935;28;20041;-51
2021/11/07 05:43:13;;;;;;;9.00;0.73;;;;;;;8.30;63.03;100463.41;5005305;28;20076;-51
2021/11/07 05:45:41;;;;;;;6.82;0.77;;;;;;;8.26;63.25;100469.38;4998243;28;20073;-46
2021/11/07 05:48:08;;;;;;;5.10;0.85;;;;;;;8.27;64.31;100465.97;5002704;28;20042;-47
2021/11/07 05:50:36;;;;;;;3.22;0.70;;;;;;;8.21;63.17;100444.38;4999421;28;20398;-48
2021/11/07 05:53:03;;;;;;;8.05;0.93;;;;;;;8.23;63.29;100437.56;5006131;28;20038;-45
2021/11/07 05:55:31;;;;;;;5.88;0.90;;;;;;;8.23;63.50;100447.88;5008082;28;20076;-49
2021/11/07 05:57:59;;;;;;;7.28;1.00;;;;;;;8.20;64.24;100473.63;5008033;28;20045;-51
2021/11/07 06:00:27;;;;;;;7.53;1.23;;;;;;;8.16;63.78;100471.84;5004751;28;20042;-46
2021/11/07 06:02:55;;;;;;;8.32;1.20;;;;;;;8.17;64.37;100468.41;5000506;28;20135;-53
2021/11/07 06:05:23;;;;;;;6.63;3.08;;;;;;;8.16;63.94;100461.53;5006157;28;20631;-52
2021/11/07 06:07:50;;;;;;;8.13;1.00;;;;;;;8.13;64.40;100461.50;5005221;28;20053;-50
2021/11/07 06:10:18;;;;;;;5.55;0.75;;;;;;;8.16;64.42;100466.69;5004985;28;20433;-48
2021/11/07 06:12:45;;;;;;;12.13;1.13;;;;;;;8.17;63.19;100477.91;5004506;28;20046;-47
2021/11/07 06:15:13;;;;;;;6.00;0.75;;;;;;;8.16;62.62;100461.53;5005609;28;20073;-45
2021/11/07 06:17:40;;;;;;;6.15;0.80;;;;;;;8.15;63.00;100449.50;5002886;28;20382;-47
2021/11/07 06:20:08;;;;;;;5.93;1.08;;;;;;;8.15;63.30;100464.97;5008085;28;20049;-44
2021/11/07 06:22:37;;;;;;;8.98;0.95;;;;;;;8.15;63.66;100464.97;5003773;28;20046;-43
2021/11/07 06:25:05;;;;;;;7.03;0.70;;;;;;;8.15;63.82;100464.97;5004680;28;20558;-48
2021/11/07 06:27:35;;;;;;;14.27;1.27;;;;;;;8.15;63.37;100474.41;5001943;28;20131;-53
2021/11/07 06:30:06;;;;;;;9.73;0.63;;;;;;;8.16;63.11;100487.34;5005666;28;20507;-47
2021/11/07 06:32:33;;;;;;;13.82;1.08;;;;;;;8.17;63.76;100491.63;5004942;28;20164;-48
2021/11/07 06:35:01;;;;;;;10.20;1.02;;;;;;;8.16;63.07;100489.91;5001274;28;20050;-46
2021/11/07 06:37:28;;;;;;;8.55;0.85;;;;;;;8.12;63.53;100484.69;5002868;28;20141;-51
2021/11/07 06:39:56;;;;;;;6.85;1.80;;;;;;;8.18;63.17;100479.63;4999303;28;20108;-45
2021/11/07 06:42:23;;;;;;;6.85;1.20;;;;;;;8.14;63.55;100489.00;5005245;28;20058;-48
2021/11/07 06:44:51;;;;;;;8.88;0.63;;;;;;;8.14;63.52;100483.84;5008765;28;20179;-52
2021/11/07 06:47:18;;;;;;;7.20;0.70;;;;;;;8.13;63.98;100471.81;5004902;28;20046;-54
2021/11/07 06:49:46;;;;;;;6.43;0.55;;;;;;;8.12;64.02;100474.34;5009913;28;20111;-51
2021/11/07 06:52:14;;;;;;;8.10;1.25;;;;;;;8.12;63.30;100484.69;5007674;28;20046;-46
2021/11/07 06:54:41;;;;;;;6.43;1.15;;;;;;;8.11;63.14;100483.84;5001629;28;20133;-53
2021/11/07 06:57:08;;;;;;;6.22;1.17;;;;;;;8.14;64.26;100494.19;5006511;28;20038;-45
2021/11/07 06:59:36;;;;;;;5.38;0.60;;;;;;;8.12;63.16;100490.72;5004237;28;20112;-48
2021/11/07 07:02:04;;;;;;;9.93;1.08;;;;;;;8.10;63.31;100489.81;5001221;28;20096;-50
2021/11/07 07:04:31;;;;;;;7.10;0.65;;;;;;;8.09;63.68;100475.19;5002931;28;20072;-48
2021/11/07 07:06:59;;;;;;;6.15;0.88;;;;;;;8.04;63.23;100488.00;5004506;28;20055;-46
2021/11/07 07:09:30;;;;;;;10.82;0.98;;;;;;;8.02;63.29;100494.00;5002828;28;20057;-47
2021/11/07 07:12:17;;;;;;;;;;;;;;;7.91;64.13;100476.63;5005909;28;20053;-48
2021/11/07 07:26:16;;;;;;;10.55;1.38;;;;;;;8.07;64.63;100507.84;4997262;28;20057;-48
2021/11/07 07:29:11;;;;;;;9.60;1.50;;;;;;;8.06;63.54;100493.19;5006207;28;20046;-52
2021/11/07 07:31:52;;;;;;;4.75;1.20;;;;;;;8.06;64.26;100490.63;5005160;28;20129;-52
2021/11/07 07:34:22;;;;;;;8.13;1.45;;;;;;;8.09;64.75;100485.50;5007713;28;20045;-49
2021/11/07 07:36:51;;;;;;;7.70;1.42;;;;;;;8.11;64.54;100507.06;5000959;28;20137;-53
2021/11/07 07:39:19;;;;;;;7.75;1.33;;;;;;;8.09;64.23;100511.31;5005287;28;20054;-46
2021/11/07 07:41:47;;;;;;;11.63;2.53;;;;;;;8.15;64.79;100521.72;5004979;28;20048;-50
2021/11/07 07:44:16;;;;;;;9.00;1.63;;;;;;;8.21;63.48;100516.66;5000705;28;20050;-51
2021/11/07 07:46:45;;;;;;;8.18;0.80;;;;;;;8.32;64.45;100528.84;5003482;28;20045;-45
2021/11/07 07:49:14;;;;;;;2.88;0.52;;;;;;;8.39;64.44;100522.03;5001765;28;20049;-45
2021/11/07 07:51:42;;;;;;;10.82;1.58;;;;;;;8.54;64.09;100529.19;5000733;28;20111;-45
2021/11/07 07:54:10;;;;;;;6.95;1.08;;;;;;;8.63;63.60;100544.78;5000064;28;20050;-52
2021/11/07 07:56:37;;;;;;;4.78;0.88;;;;;;;8.73;63.46;100541.50;5000312;28;20137;-47
2021/11/07 07:59:07;;;;;;;11.15;0.95;;;;;;;8.78;62.86;100546.69;5000161;28;20061;-46
2021/11/07 08:01:35;;;;;;;9.80;1.20;;;;;;;8.86;62.46;100537.31;4996517;28;20651;-45
2021/11/07 08:04:03;;;;;;;13.02;1.17;;;;;;;8.84;63.28;100539.03;5003064;28;20061;-47
2021/11/07 08:06:31;;;;;;;9.10;0.82;;;;;;;8.83;62.18;100528.69;5003316;28;20061;-45
2021/11/07 08:08:59;;;;;;;11.15;1.52;;;;;;;8.84;63.35;100522.66;5000238;28;20060;-42
2021/11/07 08:11:26;;;;;;;10.05;1.45;;;;;;;8.89;63.54;100505.50;4994315;28;20053;-45
2021/11/07 08:13:53;;;;;;;9.00;1.40;;;;;;;8.91;63.11;100506.38;5001717;28;20053;-51
2021/11/07 08:16:23;;;;;;;11.27;1.80;;;;;;;8.96;62.24;100509.91;4994676;28;20407;-48
2021/11/07 08:18:51;;;;;;;8.63;1.02;;;;;;;9.03;63.02;100522.88;4999260;28;20045;-49
2021/11/07 08:21:20;;;;;;;11.05;1.70;;;;;;;9.11;63.10;100526.41;4998647;28;20401;-51
2021/11/07 08:23:50;;;;;;;9.70;1.52;;;;;;;9.19;62.23;100535.09;4999621;28;20526;-49
2021/11/07 08:26:17;;;;;;;14.82;1.75;;;;;;;9.28;62.19;100525.75;4996382;28;20141;-46
2021/11/07 08:28:46;;;;;;;7.63;1.08;;;;;;;9.38;61.76;100532.72;5003491;28;20045;-47
2021/11/07 08:31:21;;;;;;;12.82;1.55;;;;;;;9.50;61.99;100529.41;5003260;28;20504;-47
2021/11/07 08:33:49;;;;;;;10.52;1.75;;;;;;;9.66;61.70;100517.44;5004162;28;20049;-49
2021/11/07 08:36:21;;;;;;;9.55;1.52;;;;;;;9.85;61.41;100522.78;5001402;28;20081;-51
2021/11/07 08:38:58;;;;;;;9.50;1.48;;;;;;;10.05;61.13;100537.59;5000771;28;20129;-43
2021/11/07 08:41:28;;;;;;;7.60;1.00;;;;;;;10.15;60.97;100536.81;5002433;28;20052;-48
2021/11/07 09:01:25;;;;;;;15.75;4.43;;;;;;;12.01;56.13;100514.91;4995266;28;20677;-52
2021/11/07 09:04:16;;;;;;;10.30;2.17;;;;;;;12.40;55.06;100534.78;5000750;28;20096;-50
2021/11/07 09:06:57;;;;;;;8.57;2.08;;;;;;;12.31;54.98;100540.84;4999542;28;20058;-50
2021/11/07 09:09:29;;;;;;;7.53;1.52;;;;;;;12.04;55.28;100548.66;4996730;28;20042;-51
2021/11/07 09:11:58;;;;;;;6.43;1.10;;;;;;;11.71;55.94;100550.38;4997783;28;20062;-53
2021/11/07 09:14:30;;;;;;;11.55;1.52;;;;;;;11.47;56.97;100531.34;5002940;28;20458;-46
2021/11/07 09:16:58;;;;;;;9.75;0.95;;;;;;;11.35;56.95;100531.31;5001267;28;20044;-50
2021/11/07 09:19:27;;;;;;;4.47;1.30;;;;;;;11.29;57.18;100522.66;5000136;28;20052;-48
2021/11/07 09:22:05;;;;;;;4.95;0.70;;;;;;;11.32;57.27;100514.88;4995766;28;20054;-50
2021/11/07 09:27:27;;;;;;;12.27;1.30;;;;;;;11.26;56.86;100522.66;5000394;28;20055;-52
2021/11/07 09:32:54;;;;;;;6.85;1.00;;;;;;;11.20;57.75;100533.00;5002351;28;20049;-52
2021/11/07 09:35:32;;;;;;;13.13;1.15;;;;;;;11.21;57.11;100533.88;5005479;28;20050;-45
2021/11/07 09:38:05;;;;;;;10.80;1.33;;;;;;;11.26;57.57;100527.84;5006081;28;20053;-50
2021/11/07 09:40:37;;;;;;;9.27;0.70;;;;;;;11.36;57.67;100533.03;5003093;28;20478;-50
2021/11/07 09:43:49;;;;;;;7.03;1.15;;;;;;;11.50;56.74;100540.84;5004800;28;20046;-53
2021/11/07 09:46:07;;;;;;;14.73;4.70;;;;;;;11.54;56.97;100543.44;4995246;28;20627;-52
2021/11/07 09:48:39;;;;;;;10.60;0.70;;;;;;;11.46;55.92;100536.50;5001519;28;20054;-54
2021/11/07 09:51:16;;;;;;;12.52;1.75;;;;;;;11.53;56.23;100546.91;5008428;28;20045;-46
2021/11/07 09:53:47;;;;;;;5.95;1.00;;;;;;;11.66;56.43;100552.97;5001125;28;20054;-48
2021/11/07 09:56:15;;;;;;;9.35;1.35;;;;;;;11.91;57.05;100550.38;5007946;28;20061;-48
2021/11/07 09:58:47;;;;;;;12.70;1.17;;;;;;;12.22;55.96;100562.50;5004862;28;20111;-47
2021/11/07 10:01:14;;;;;;;10.50;1.30;;;;;;;12.50;55.71;100565.03;5006472;28;20050;-54
2021/11/07 10:03:44;;;;;;;5.70;1.40;;;;;;;12.87;54.87;100561.47;5006671;28;20123;-53
2021/11/07 10:06:38;;;;;;;6.43;1.52;;;;;;;13.14;53.85;100564.81;5000750;28;20058;-50
2021/11/07 10:09:06;;;;;;;8.10;1.13;;;;;;;13.33;52.97;100576.00;5006692;28;20050;-49
2021/11/07 10:11:38;;;;;;;12.68;1.00;;;;;;;13.62;53.47;100572.38;5004181;28;20541;-49
2021/11/07 10:14:13;;;;;;;6.82;0.95;;;;;;;13.79;52.29;100576.59;5006877;28;20046;-50
2021/11/07 10:16:48;;;;;;;7.05;0.82;;;;;;;13.77;51.67;100570.53;4992893;28;20045;-50
2021/11/07 10:19:28;;;;;;;6.97;0.88;;;;;;;13.82;51.34;100584.38;5006679;28;20081;-51
2021/11/07 10:21:58;;;;;;;11.50;1.50;;;;;;;13.94;52.12;100582.53;5008331;28;20046;-53
2021/11/07 10:24:37;;;;;;;6.18;0.80;;;;;;;13.83;51.00;100580.91;5006757;28;20054;-49
2021/11/07 10:27:13;;;;;;;9.88;1.00;;;;;;;13.84;51.02;100584.34;5003543;28;20466;-50
2021/11/07 10:29:46;;;;;;;11.07;1.17;;;;;;;13.74;50.29;100573.16;5000275;28;20608;-51
2021/11/07 10:32:32;;;;;;;13.30;1.00;;;;;;;13.54;50.72;100579.34;5007111;28;20048;-52
2021/11/07 10:41:47;;;;;;;10.23;1.10;;;;;;;12.91;50.87;100588.34;4996889;28;20066;-52
2021/11/07 10:44:27;;;;;;;6.90;0.93;;;;;;;12.91;51.52;100589.22;5004764;28;20502;-53
2021/11/07 10:52:39;;;;;;;5.30;0.65;;;;;;;12.82;52.79;100590.09;4991592;28;20046;-52
2021/11/07 10:55:17;;;;;;;7.53;0.98;;;;;;;12.84;52.46;100584.91;5003588;28;20556;-51
2021/11/07 10:57:47;;;;;;;11.75;1.13;;;;;;;12.80;52.26;100585.78;5001265;28;20038;-49
2021/11/07 11:00:37;;;;;;;9.85;1.15;;;;;;;12.70;52.09;100587.53;5004448;28;20057;-48
2021/11/07 11:03:08;;;;;;;4.70;1.33;;;;;;;12.63;51.45;100593.63;5003153;28;20046;-54
2021/11/07 11:05:47;;;;;;;14.88;1.58;;;;;;;12.66;52.32;100598.81;5002654;28;20109;-47
2021/11/07 11:08:23;;;;;;;9.30;1.48;;;;;;;12.60;52.68;100600.53;4998703;28;20046;-51
2021/11/07 11:10:59;;;;;;;13.18;2.67;;;;;;;12.62;53.25;100607.47;5001583;28;20569;-51
2021/11/07 11:13:41;;;;;;;5.93;1.45;;;;;;;12.54;52.94;100610.97;5006255;28;20053;-47
2021/11/07 11:16:25;;;;;;;10.20;1.17;;;;;;;12.49;52.34;100612.69;5004205;28;20403;-56
2021/11/07 11:19:25;;;;;;;11.23;1.77;;;;;;;12.45;52.90;100610.97;4999359;28;20374;-48
2021/11/07 11:25:26;;;;;;;9.32;1.00;;;;;;;12.42;53.77;100617.03;5010377;28;20096;-51
2021/11/07 11:33:48;;;;;;;8.88;1.45;;;;;;;12.31;53.22;100648.22;4987785;28;20058;-50
2021/11/07 11:36:25;;;;;;;8.27;1.35;;;;;;;12.39;54.01;100636.97;4990087;28;20519;-48
2021/11/07 11:38:59;;;;;;;4.75;0.75;;;;;;;12.36;53.85;100639.56;5002903;28;20124;-47
2021/11/07 11:41:41;;;;;;;10.48;1.58;;;;;;;12.45;53.81;100634.34;4998038;28;20054;-46
2021/11/07 11:44:11;;;;;;;9.27;1.35;;;;;;;12.47;52.92;100630.88;4999249;28;20045;-49
2021/11/07 11:46:47;;;;;;;10.32;1.27;;;;;;;12.45;52.37;100629.16;5004015;28;20136;-50
2021/11/07 11:52:42;;;;;;;6.50;1.52;;;;;;;12.18;52.19;100631.78;4998450;28;20144;-46
2021/11/07 11:58:20;;;;;;;9.27;1.02;;;;;;;12.08;53.02;100628.31;4999790;28;20074;-49
2021/11/07 12:00:48;;;;;;;5.70;1.05;;;;;;;12.13;53.40;100630.03;4998274;28;20501;-47
2021/11/07 12:03:47;;;;;;;7.88;1.10;;;;;;;12.02;53.00;100630.00;5002071;28;20053;-49
2021/11/07 12:06:42;;;;;;;5.10;2.03;;;;;;;11.93;53.67;100623.06;5000145;28;20635;-50
2021/11/07 12:09:26;;;;;;;9.27;0.90;;;;;;;12.05;52.81;100635.19;4988718;28;20055;-46
2021/11/07 12:12:02;;;;;;;9.60;0.90;;;;;;;12.08;53.67;100638.69;5002619;28;20085;-47
2021/11/07 12:14:43;;;;;;;6.00;1.05;;;;;;;12.16;54.15;100638.69;5000536;28;20054;-49
2021/11/07 12:17:12;;;;;;;12.60;1.52;;;;;;;12.19;53.74;100640.41;5002098;28;20057;-47
2021/11/07 12:19:45;;;;;;;5.68;0.73;;;;;;;11.97;53.32;100640.38;5001741;28;20081;-51
2021/11/07 12:22:30;;;;;;;7.25;0.47;;;;;;;11.96;52.65;100639.50;4995557;28;20073;-44
2021/11/07 12:25:06;;;;;;;2.67;0.85;;;;;;;11.95;52.55;100636.91;4990005;28;20045;-44
2021/11/07 12:27:37;;;;;;;;;;;;;;;11.94;53.55;100637.78;5001263;28;20128;-50
2021/11/07 12:30:23;;;;;;;17.35;1.48;;;;;;;11.98;52.84;100629.13;5000941;28;19930;-46
2021/11/07 12:33:01;;;;;;;5.05;1.60;;;;;;;12.06;54.32;100634.38;5002866;28;20506;-47
2021/11/07 12:35:38;;;;;;;5.72;1.02;;;;;;;12.06;54.06;100630.03;4996728;28;20046;-47
2021/11/07 12:41:20;;;;;;;5.60;1.20;;;;;;;11.77;53.71;100635.16;4984801;28;20041;-47
2021/11/07 12:43:59;;;;;;;5.47;1.08;;;;;;;11.67;53.35;100610.91;4999601;28;20061;-46
2021/11/07 12:46:44;;;;;;;9.52;1.30;;;;;;;11.68;54.27;100612.66;4996639;28;20057;-46
2021/11/07 12:49:29;;;;;;;5.60;1.08;;;;;;;11.64;54.50;100605.72;5003517;28;20052;-43
2021/11/07 12:52:12;;;;;;;6.75;0.88;;;;;;;11.63;54.05;100609.19;5001179;28;20707;-47
2021/11/07 12:54:42;;;;;;;6.40;0.88;;;;;;;11.60;53.81;100603.97;4997543;28;20104;-50
2021/11/07 12:57:11;;;;;;;9.45;1.75;;;;;;;11.57;54.04;100613.50;5000987;28;20434;-47
2021/11/07 12:59:44;;;;;;;;;;;;;;;11.56;54.76;100619.53;5002800;28;20060;-51